createdAt,value
2022-09-20T00:01:40.346Z,7.98
2022-09-20T00:04:08.572Z,7.87
2022-09-20T00:06:36.670Z,8.08
2022-09-20T00:09:05.405Z,7.99
2022-09-20T00:11:35.977Z,7.89
2022-09-20T00:14:08.602Z,7.87
2022-09-20T00:16:41.109Z,8.13
2022-09-20T00:19:17.103Z,8.13
2022-09-20T00:21:46.235Z,8.15
2022-09-20T00:24:14.691Z,8.12
2022-09-20T00:26:42.650Z,8.14
2022-09-20T00:29:11.103Z,8.21
2022-09-20T00:31:40.443Z,8.18
2022-09-20T00:34:29.502Z,8.17
2022-09-20T00:36:57.547Z,8.23
2022-09-20T00:39:25.818Z,8.24
2022-09-20T00:41:53.773Z,8.04
2022-09-20T00:44:45.537Z,8.30
2022-09-20T00:47:23.641Z,8.31
2022-09-20T00:49:57.476Z,8.31
2022-09-20T00:52:27.007Z,8.33
2022-09-20T00:54:55.236Z,8.34
2022-09-20T00:57:24.235Z,8.33
2022-09-20T00:59:53.403Z,8.29
2022-09-20T01:02:27.889Z,8.33
2022-09-20T01:04:58.175Z,8.37
2022-09-20T01:07:27.393Z,8.11
2022-09-20T01:09:55.684Z,8.37
2022-09-20T01:12:29.454Z,8.13
2022-09-20T01:14:59.171Z,8.37
2022-09-20T01:17:30.697Z,8.31
2022-09-20T01:20:20.870Z,8.37
2022-09-20T01:23:02.553Z,8.29
2022-09-20T01:25:54.232Z,8.00
2022-09-20T01:28:23.376Z,8.49
2022-09-20T01:31:04.205Z,8.49
2022-09-20T01:33:50.772Z,8.49
2022-09-20T01:36:38.144Z,8.49
2022-09-20T01:39:29.990Z,8.49
2022-09-20T01:42:15.969Z,8.45
2022-09-20T01:45:07.972Z,8.51
2022-09-20T01:47:54.121Z,8.49
2022-09-20T01:50:43.314Z,8.51
2022-09-20T01:53:10.982Z,8.52
2022-09-20T01:56:15.933Z,8.51
2022-09-20T01:59:07.150Z,8.53
2022-09-20T02:01:58.466Z,8.52
2022-09-20T02:04:32.138Z,8.53
2022-09-20T02:07:32.767Z,8.55
2022-09-20T02:10:22.187Z,8.34
2022-09-20T02:13:39.946Z,8.56
2022-09-20T02:16:48.663Z,8.57
2022-09-20T02:19:39.267Z,8.57
2022-09-20T02:22:22.947Z,8.55
2022-09-20T02:25:23.594Z,8.59
2022-09-20T02:28:03.126Z,8.58
2022-09-20T02:31:10.684Z,8.60
2022-09-20T02:34:03.905Z,8.35
2022-09-20T02:37:12.069Z,8.53
2022-09-20T02:40:20.142Z,8.63
2022-09-20T02:43:09.183Z,8.65
2022-09-20T02:46:00.659Z,8.65
2022-09-20T02:48:55.828Z,8.43
2022-09-20T02:51:54.372Z,8.43
2022-09-20T02:55:08.137Z,8.63
2022-09-20T02:58:36.927Z,8.72
2022-09-20T03:01:29.618Z,8.71
2022-09-20T03:04:31.203Z,8.59
2022-09-20T03:07:23.315Z,8.71
2022-09-20T03:10:05.929Z,8.73
2022-09-20T03:12:45.022Z,8.75
2022-09-20T03:15:37.856Z,8.75
2022-09-20T03:18:16.093Z,8.76
2022-09-20T03:21:15.793Z,8.53
2022-09-20T03:24:23.060Z,8.56
2022-09-20T03:27:08.564Z,8.78
2022-09-20T03:30:31.644Z,8.82
2022-09-20T03:33:29.763Z,8.82
2022-09-20T03:36:12.908Z,8.83
2022-09-20T03:39:12.557Z,8.81
2022-09-20T03:42:04.281Z,8.83
2022-09-20T03:44:57.926Z,8.83
2022-09-20T03:48:17.708Z,8.88
2022-09-20T03:51:05.460Z,8.63
2022-09-20T03:54:13.979Z,8.90
2022-09-20T03:56:59.691Z,8.92
2022-09-20T04:00:03.515Z,8.94
2022-09-20T04:02:39.250Z,8.92
2022-09-20T04:05:27.371Z,8.96
2022-09-20T04:08:13.161Z,9.00
2022-09-20T04:11:09.002Z,8.80
2022-09-20T04:14:11.739Z,8.98
2022-09-20T04:17:20.830Z,8.97
2022-09-20T04:20:18.060Z,8.94
2022-09-20T04:22:51.784Z,8.95
2022-09-20T04:25:44.122Z,8.90
2022-09-20T04:28:19.921Z,8.93
2022-09-20T04:30:51.795Z,8.98
2022-09-20T04:33:27.604Z,8.99
2022-09-20T04:36:30.094Z,9.02
2022-09-20T04:39:17.044Z,9.04
2022-09-20T04:41:53.548Z,9.05
2022-09-20T04:45:13.882Z,9.05
2022-09-20T04:48:29.750Z,9.16
2022-09-20T04:51:58.570Z,9.18
2022-09-20T04:54:57.420Z,9.23
2022-09-20T04:57:50.678Z,9.23
2022-09-20T05:00:24.277Z,9.01
2022-09-20T05:03:57.470Z,9.31
2022-09-20T05:06:46.274Z,9.29
2022-09-20T05:09:36.598Z,9.29
2022-09-20T05:12:44.447Z,9.35
2022-09-20T05:15:53.126Z,9.37
2022-09-20T05:18:33.279Z,9.42
2022-09-20T05:21:43.244Z,9.42
2022-09-20T05:24:29.120Z,9.45
2022-09-20T05:27:00.264Z,9.46
2022-09-20T05:30:21.098Z,9.46
2022-09-20T05:32:58.948Z,9.64
2022-09-20T05:36:09.326Z,9.67
2022-09-20T05:38:50.926Z,9.57
2022-09-20T05:41:55.927Z,9.72
2022-09-20T05:44:40.450Z,9.72
2022-09-20T05:47:59.969Z,9.81
2022-09-20T05:51:24.339Z,9.83
2022-09-20T05:54:23.524Z,9.76
2022-09-20T05:57:33.816Z,9.95
2022-09-20T06:00:15.136Z,9.98
2022-09-20T06:03:32.550Z,10.01
2022-09-20T06:06:31.725Z,10.02
2022-09-20T06:09:09.598Z,9.99
2022-09-20T06:12:04.988Z,10.06
2022-09-20T06:15:02.218Z,9.97
2022-09-20T06:17:44.044Z,10.10
2022-09-20T06:20:21.297Z,10.18
2022-09-20T06:22:56.738Z,10.06
2022-09-20T06:25:41.409Z,10.19
2022-09-20T06:28:24.039Z,10.29
2022-09-20T06:30:55.665Z,10.04
2022-09-20T06:33:29.108Z,10.06
2022-09-20T06:35:59.223Z,10.37
2022-09-20T06:39:04.431Z,10.21
2022-09-20T06:41:35.088Z,10.17
2022-09-20T06:44:07.078Z,10.30
2022-09-20T06:46:36.638Z,10.38
2022-09-20T06:49:08.336Z,9.71
2022-09-20T06:51:39.345Z,10.45
2022-09-20T06:54:13.688Z,10.22
2022-09-20T06:56:44.163Z,10.42
2022-09-20T06:59:12.989Z,10.41
2022-09-20T07:01:41.698Z,10.44
2022-09-20T07:04:09.915Z,10.50
2022-09-20T07:06:38.163Z,10.62
2022-09-20T07:09:06.965Z,10.40
2022-09-20T07:11:35.333Z,10.61
2022-09-20T07:14:04.367Z,10.92
2022-09-20T07:16:32.882Z,10.96
2022-09-20T07:19:01.149Z,11.02
2022-09-20T07:21:30.354Z,11.06
2022-09-20T07:23:58.356Z,10.84
2022-09-20T07:26:30.157Z,11.10
2022-09-20T07:28:59.561Z,10.85
2022-09-20T07:31:29.420Z,11.12
2022-09-20T07:33:57.700Z,10.68
2022-09-20T07:36:25.751Z,10.96
2022-09-20T07:38:53.966Z,10.95
2022-09-20T07:41:23.365Z,11.05
2022-09-20T07:43:51.950Z,10.99
2022-09-20T07:46:23.512Z,10.87
2022-09-20T07:48:52.522Z,11.09
2022-09-20T07:51:20.438Z,11.11
2022-09-20T07:53:48.420Z,10.56
2022-09-20T07:56:19.347Z,11.36
2022-09-20T07:58:52.152Z,11.51
2022-09-20T08:01:22.144Z,11.68
2022-09-20T08:03:50.179Z,11.59
2022-09-20T08:06:21.354Z,11.53
2022-09-20T08:08:51.851Z,11.64
2022-09-20T08:11:27.770Z,11.73
2022-09-20T08:14:08.381Z,11.69
2022-09-20T08:16:43.619Z,11.71
2022-09-20T08:19:23.648Z,11.78
2022-09-20T08:21:55.358Z,11.81
2022-09-20T08:24:23.269Z,11.74
2022-09-20T08:26:51.266Z,11.68
2022-09-20T08:29:19.216Z,11.67
2022-09-20T08:31:48.190Z,11.80
2022-09-20T08:34:18.565Z,11.91
2022-09-20T08:36:47.414Z,12.17
2022-09-20T08:42:37.853Z,12.11
2022-09-20T08:45:33.812Z,11.85
2022-09-20T08:48:06.695Z,12.21
2022-09-20T08:50:36.943Z,12.45
2022-09-20T08:53:05.401Z,12.37
2022-09-20T08:55:37.764Z,12.46
2022-09-20T08:58:08.704Z,12.53
2022-09-20T09:00:39.389Z,12.48
2022-09-20T09:03:13.321Z,12.16
2022-09-20T09:05:52.710Z,12.38
2022-09-20T09:08:31.086Z,12.19
2022-09-20T09:11:08.628Z,12.65
2022-09-20T09:13:57.051Z,12.57
2022-09-20T09:16:35.056Z,11.93
2022-09-20T09:19:33.276Z,12.15
2022-09-20T09:22:06.040Z,12.48
2022-09-20T09:24:34.963Z,12.70
2022-09-20T09:27:28.127Z,12.83
2022-09-20T09:29:56.702Z,12.62
2022-09-20T09:32:29.401Z,12.71
2022-09-20T09:35:28.344Z,13.10
2022-09-20T09:38:03.140Z,12.99
2022-09-20T09:40:32.875Z,12.69
2022-09-20T09:43:03.056Z,12.53
2022-09-20T09:45:38.934Z,12.33
2022-09-20T09:48:33.090Z,11.95
2022-09-20T09:51:20.952Z,11.73
2022-09-20T09:53:49.352Z,11.61
2022-09-20T09:56:41.925Z,11.62
2022-09-20T09:59:31.007Z,11.76
2022-09-20T10:02:41.963Z,11.70
2022-09-20T10:05:39.975Z,11.62
2022-09-20T10:08:19.496Z,11.54
2022-09-20T10:11:17.896Z,11.63
2022-09-20T10:14:26.778Z,11.86
2022-09-20T10:17:31.801Z,12.01
2022-09-20T10:23:24.176Z,12.25
2022-09-20T10:25:55.304Z,12.53
2022-09-20T10:29:17.630Z,12.51
2022-09-20T10:32:07.049Z,12.27
2022-09-20T10:35:14.632Z,12.16
2022-09-20T10:38:14.607Z,12.37
2022-09-20T10:41:22.674Z,12.66
2022-09-20T10:44:18.450Z,12.41
2022-09-20T10:47:01.660Z,12.33
2022-09-20T10:50:15.784Z,12.38
2022-09-20T10:53:24.577Z,12.45
2022-09-20T10:56:15.843Z,12.22
2022-09-20T10:59:25.312Z,12.22
2022-09-20T11:02:38.138Z,12.29
2022-09-20T11:05:28.490Z,12.34
2022-09-20T11:08:29.131Z,12.18
2022-09-20T11:11:34.903Z,12.14
2022-09-20T11:14:21.700Z,12.43
2022-09-20T11:16:51.668Z,12.71
2022-09-20T11:20:06.180Z,13.09
2022-09-20T11:22:51.338Z,13.44
2022-09-20T11:25:32.736Z,12.70
2022-09-20T11:28:11.701Z,12.84
2022-09-20T11:31:08.002Z,12.62
2022-09-20T11:33:52.682Z,12.99
2022-09-20T11:37:02.706Z,14.29
2022-09-20T11:39:55.606Z,13.97
2022-09-20T11:42:30.616Z,13.47
2022-09-20T11:44:58.647Z,12.85
2022-09-20T11:48:00.989Z,12.68
2022-09-20T11:51:06.021Z,13.03
2022-09-20T11:54:29.175Z,13.95
2022-09-20T11:56:58.562Z,14.26
2022-09-20T11:59:42.217Z,13.44
2022-09-20T12:02:50.540Z,13.23
2022-09-20T12:05:41.740Z,13.12
2022-09-20T12:08:35.618Z,13.01
2022-09-20T12:11:06.466Z,13.38
2022-09-20T12:13:52.686Z,13.74
2022-09-20T12:16:40.709Z,14.12
2022-09-20T12:19:34.310Z,14.38
2022-09-20T12:22:04.269Z,14.15
2022-09-20T12:24:45.450Z,14.43
2022-09-20T12:29:35.975Z,14.29
2022-09-20T12:32:40.352Z,14.19
2022-09-20T12:35:39.201Z,13.61
2022-09-20T12:38:28.394Z,13.62
2022-09-20T12:41:09.334Z,13.92
2022-09-20T12:43:49.897Z,14.26
2022-09-20T12:46:34.686Z,14.00
2022-09-20T12:49:45.589Z,13.89
2022-09-20T12:52:49.984Z,13.96
2022-09-20T12:55:41.290Z,13.69
2022-09-20T12:58:14.864Z,13.77
2022-09-20T13:01:14.418Z,14.55
2022-09-20T13:03:44.628Z,14.15
2022-09-20T13:06:16.837Z,14.59
2022-09-20T13:08:50.484Z,14.93
2022-09-20T13:11:29.719Z,14.17
2022-09-20T13:14:22.704Z,13.87
2022-09-20T13:17:30.090Z,13.71
2022-09-20T13:19:59.221Z,14.07
2022-09-20T13:22:34.636Z,14.24
2022-09-20T13:25:07.863Z,14.10
2022-09-20T13:28:00.279Z,13.84
2022-09-20T13:30:33.244Z,13.83
2022-09-20T13:33:26.778Z,14.00
2022-09-20T13:35:58.387Z,14.15
2022-09-20T13:38:30.839Z,14.02
2022-09-20T13:41:10.643Z,14.33
2022-09-20T13:43:49.723Z,13.99
2022-09-20T13:46:24.069Z,13.63
2022-09-20T13:49:24.080Z,13.55
2022-09-20T13:51:52.216Z,13.47
2022-09-20T13:54:30.825Z,13.89
2022-09-20T13:57:16.036Z,14.04
2022-09-20T13:59:46.847Z,14.38
2022-09-20T14:02:32.865Z,14.12
2022-09-20T14:05:05.745Z,14.31
2022-09-20T14:07:36.611Z,14.27
2022-09-20T14:10:05.587Z,14.12
2022-09-20T14:12:35.076Z,14.30
2022-09-20T14:15:10.207Z,14.53
2022-09-20T14:17:39.927Z,14.63
2022-09-20T14:20:13.139Z,14.64
2022-09-20T14:22:44.334Z,14.57
2022-09-20T14:25:12.656Z,14.92
2022-09-20T14:27:40.983Z,14.74
2022-09-20T14:30:31.354Z,14.07
2022-09-20T14:33:00.140Z,14.16
2022-09-20T14:35:29.027Z,14.08
2022-09-20T14:38:08.748Z,13.78
2022-09-20T14:40:48.773Z,13.60
2022-09-20T14:43:31.832Z,13.24
2022-09-20T14:46:06.058Z,13.16
2022-09-20T14:48:41.472Z,13.33
2022-09-20T14:51:14.363Z,13.30
2022-09-20T14:53:44.471Z,13.19
2022-09-20T14:56:16.148Z,13.24
2022-09-20T14:59:19.125Z,13.11
2022-09-20T15:02:13.915Z,13.02
2022-09-20T15:04:54.785Z,12.93
2022-09-20T15:07:23.022Z,13.13
2022-09-20T15:09:51.874Z,13.05
2022-09-20T15:12:21.680Z,13.07
2022-09-20T15:14:49.727Z,13.18
2022-09-20T15:17:21.544Z,12.93
2022-09-20T15:19:50.423Z,12.73
2022-09-20T15:22:18.311Z,13.10
2022-09-20T15:24:46.661Z,13.08
2022-09-20T15:27:16.017Z,13.02
2022-09-20T15:29:46.834Z,13.17
2022-09-20T15:32:15.593Z,12.47
2022-09-20T15:34:43.707Z,13.00
2022-09-20T15:37:11.544Z,13.14
2022-09-20T15:39:39.789Z,12.97
2022-09-20T15:42:07.926Z,13.19
2022-09-20T15:44:36.481Z,13.09
2022-09-20T15:47:04.889Z,13.09
2022-09-20T15:49:33.531Z,12.94
2022-09-20T15:52:02.439Z,12.92
2022-09-20T15:54:30.546Z,12.82
2022-09-20T15:56:58.629Z,12.61
2022-09-20T15:59:28.595Z,12.54
2022-09-20T16:01:57.872Z,12.66
2022-09-20T16:04:27.528Z,12.56
2022-09-20T16:06:55.497Z,12.51
2022-09-20T16:09:23.693Z,12.54
2022-09-20T16:11:51.701Z,12.54
2022-09-20T16:14:19.550Z,12.15
2022-09-20T16:16:48.118Z,12.40
2022-09-20T16:19:24.527Z,12.17
2022-09-20T16:21:58.931Z,12.02
2022-09-20T16:24:35.300Z,12.33
2022-09-20T16:27:06.812Z,12.35
2022-09-20T16:29:35.089Z,12.29
2022-09-20T16:32:05.628Z,12.21
2022-09-20T16:34:36.195Z,12.27
2022-09-20T16:37:20.808Z,12.25
2022-09-20T16:39:52.273Z,11.93
2022-09-20T16:42:23.594Z,12.13
2022-09-20T16:44:51.555Z,11.94
2022-09-20T16:47:22.338Z,12.09
2022-09-20T16:49:54.426Z,12.05
2022-09-20T16:52:22.442Z,12.04
2022-09-20T16:54:52.574Z,12.05
2022-09-20T16:57:22.619Z,12.03
2022-09-20T16:59:51.940Z,12.00
2022-09-20T17:02:19.962Z,11.81
2022-09-20T17:04:48.061Z,11.98
2022-09-20T17:07:16.077Z,11.98
2022-09-20T17:09:44.105Z,11.92
2022-09-20T17:12:13.883Z,11.76
2022-09-20T17:14:42.010Z,11.87
2022-09-20T17:17:09.892Z,11.86
2022-09-20T17:19:39.172Z,11.85
2022-09-20T17:22:09.625Z,11.80
2022-09-20T17:24:37.482Z,11.81
2022-09-20T17:27:06.152Z,11.79
2022-09-20T17:29:34.416Z,11.75
2022-09-20T17:32:02.842Z,11.71
2022-09-20T17:34:32.007Z,11.73
2022-09-20T17:37:01.838Z,11.52
2022-09-20T17:39:29.797Z,11.65
2022-09-20T17:41:58.140Z,11.48
2022-09-20T17:44:29.217Z,11.40
2022-09-20T17:46:57.284Z,11.37
2022-09-20T17:49:27.150Z,11.54
2022-09-20T17:51:56.282Z,11.55
2022-09-20T17:54:24.905Z,11.49
2022-09-20T17:56:56.400Z,11.23
2022-09-20T17:59:24.841Z,11.44
2022-09-20T18:01:54.628Z,11.44
2022-09-20T18:04:25.435Z,11.41
2022-09-20T18:06:55.838Z,11.27
2022-09-20T18:09:25.894Z,11.23
2022-09-20T18:11:56.278Z,11.28
2022-09-20T18:14:28.548Z,11.39
2022-09-20T18:17:01.495Z,11.37
2022-09-20T18:19:34.043Z,11.13
2022-09-20T18:22:04.291Z,11.37
2022-09-20T18:24:32.910Z,11.19
2022-09-20T18:27:01.175Z,11.36
2022-09-20T18:29:31.911Z,11.38
2022-09-20T18:32:00.960Z,11.34
2022-09-20T18:34:32.198Z,11.30
2022-09-20T18:37:01.673Z,11.14
2022-09-20T18:39:32.709Z,10.96
2022-09-20T18:42:02.382Z,10.93
2022-09-20T18:44:34.129Z,10.84
2022-09-20T18:47:04.382Z,10.81
2022-09-20T18:49:33.489Z,10.78
2022-09-20T18:52:02.329Z,10.57
2022-09-20T18:54:32.435Z,10.79
2022-09-20T18:57:00.766Z,10.82
2022-09-20T18:59:29.450Z,10.79
2022-09-20T19:02:29.963Z,10.75
2022-09-20T19:05:23.752Z,10.76
2022-09-20T19:08:34.508Z,10.76
2022-09-20T19:11:10.044Z,10.76
2022-09-20T19:13:49.209Z,10.75
2022-09-20T19:16:31.756Z,10.73
2022-09-20T19:19:38.577Z,10.71
2022-09-20T19:22:44.541Z,10.64
2022-09-20T19:25:25.714Z,10.58
2022-09-20T19:27:54.426Z,10.56
2022-09-20T19:30:22.938Z,10.53
2022-09-20T19:32:51.475Z,10.51
2022-09-20T19:35:28.571Z,10.28
2022-09-20T19:38:15.888Z,10.44
2022-09-20T19:40:54.875Z,10.41
2022-09-20T19:43:48.845Z,10.36
2022-09-20T19:46:39.786Z,10.29
2022-09-20T19:50:00.139Z,10.26
2022-09-20T19:52:28.690Z,9.96
2022-09-20T19:54:57.198Z,10.23
2022-09-20T19:57:47.252Z,10.24
2022-09-20T20:00:19.759Z,10.24
2022-09-20T20:02:48.982Z,10.03
2022-09-20T20:05:20.961Z,10.23
2022-09-20T20:07:54.591Z,10.19
2022-09-20T20:10:47.187Z,9.88
2022-09-20T20:14:07.292Z,9.99
2022-09-20T20:16:53.321Z,9.91
2022-09-20T20:19:44.376Z,9.81
2022-09-20T20:22:29.330Z,9.69
2022-09-20T20:24:57.926Z,9.83
2022-09-20T20:27:31.459Z,9.66
2022-09-20T20:29:59.396Z,9.81
2022-09-20T20:32:27.473Z,9.71
2022-09-20T20:34:55.325Z,9.74
2022-09-20T20:37:24.552Z,9.69
2022-09-20T20:39:52.425Z,9.62
2022-09-20T20:42:21.875Z,9.66
2022-09-20T20:44:49.909Z,9.66
2022-09-20T20:47:17.746Z,9.44
2022-09-20T20:49:48.484Z,9.64
2022-09-20T20:52:20.372Z,9.61
2022-09-20T20:54:48.966Z,9.59
2022-09-20T20:57:19.142Z,9.59
2022-09-20T20:59:47.396Z,9.31
2022-09-20T21:02:15.739Z,9.53
2022-09-20T21:04:44.005Z,9.24
2022-09-20T21:07:12.985Z,9.52
2022-09-20T21:09:40.877Z,9.50
2022-09-20T21:12:09.547Z,9.27
2022-09-20T21:14:38.443Z,9.22
2022-09-20T21:17:06.453Z,9.46
2022-09-20T21:19:34.658Z,9.27
2022-09-20T21:22:02.943Z,9.48
2022-09-20T21:24:31.132Z,9.46
2022-09-20T21:26:59.259Z,9.43
2022-09-20T21:29:27.971Z,9.39
2022-09-20T21:31:56.082Z,9.39
2022-09-20T21:34:26.616Z,9.39
2022-09-20T21:36:54.542Z,9.35
2022-09-20T21:39:22.650Z,9.33
2022-09-20T21:41:52.372Z,9.32
2022-09-20T21:44:20.848Z,9.17
2022-09-20T21:46:51.792Z,9.30
2022-09-20T21:49:19.734Z,9.04
2022-09-20T21:51:47.745Z,9.06
2022-09-20T21:54:15.742Z,9.04
2022-09-20T21:56:43.905Z,9.28
2022-09-20T21:59:12.257Z,9.07
2022-09-20T22:01:41.263Z,9.23
2022-09-20T22:04:11.806Z,9.20
2022-09-20T22:06:45.660Z,9.06
2022-09-20T22:09:17.813Z,9.19
2022-09-20T22:11:48.880Z,9.18
2022-09-20T22:14:19.743Z,9.19
2022-09-20T22:16:49.417Z,9.17
2022-09-20T22:19:18.270Z,8.94
2022-09-20T22:21:49.533Z,9.08
2022-09-20T22:24:19.034Z,9.05
2022-09-20T22:26:51.275Z,9.06
2022-09-20T22:29:19.761Z,8.86
2022-09-20T22:31:50.379Z,8.82
2022-09-20T22:34:21.576Z,9.03
2022-09-20T22:36:50.077Z,8.98
2022-09-20T22:39:18.311Z,8.95
2022-09-20T22:41:48.100Z,8.89
2022-09-20T22:44:16.920Z,8.83
2022-09-20T22:46:44.853Z,8.65
2022-09-20T22:49:12.836Z,8.71
2022-09-20T22:51:40.894Z,8.60
2022-09-20T22:54:11.652Z,8.53
2022-09-20T22:56:41.547Z,8.25
2022-09-20T22:59:14.259Z,8.41
2022-09-20T23:01:47.754Z,8.40
2022-09-20T23:04:19.742Z,8.17
2022-09-20T23:06:56.793Z,8.03
2022-09-20T23:09:28.099Z,8.30
2022-09-20T23:11:56.720Z,8.28
2022-09-20T23:14:24.536Z,8.16
2022-09-20T23:16:53.188Z,8.16
2022-09-20T23:19:21.208Z,8.15
2022-09-20T23:21:49.151Z,8.16
2022-09-20T23:24:17.045Z,8.10
2022-09-20T23:26:45.406Z,8.10
2022-09-20T23:29:15.832Z,7.93
2022-09-20T23:31:46.734Z,8.03
2022-09-20T23:34:16.921Z,8.07
2022-09-20T23:36:45.597Z,8.05
2022-09-20T23:39:14.786Z,7.91
2022-09-20T23:41:47.005Z,7.94
2022-09-20T23:44:18.058Z,7.90
2022-09-20T23:46:46.033Z,7.80
2022-09-20T23:49:13.851Z,7.43
2022-09-20T23:51:41.593Z,7.61
2022-09-20T23:54:09.650Z,7.79
2022-09-20T23:56:38.217Z,7.70
2022-09-20T23:59:06.086Z,7.37
